sensor_id;sensor_type;location;lat;lon;timestamp;pressure;altitude;pressure_sealevel;temperature;humidity
44675;BME280;30388;52.038;-1.478;2023-04-29T00:01:32;66216.93;;;14.37;100.00
44675;BME280;30388;52.038;-1.478;2023-04-29T00:03:59;66237.53;;;14.42;100.00
44675;BME280;30388;52.038;-1.478;2023-04-29T00:06:27;66238.03;;;14.42;100.00
44675;BME280;30388;52.038;-1.478;2023-04-29T00:08:54;66206.45;;;14.24;100.00
44675;BME280;30388;52.038;-1.478;2023-04-29T00:11:22;66231.71;;;14.33;100.00
44675;BME280;30388;52.038;-1.478;2023-04-29T00:13:49;66236.98;;;14.63;100.00
44675;BME280;30388;52.038;-1.478;2023-04-29T00:16:16;66225.52;;;14.26;100.00
44675;BME280;30388;52.038;-1.478;2023-04-29T00:18:43;66248.81;;;14.55;100.00
44675;BME280;30388;52.038;-1.478;2023-04-29T00:21:10;66252.10;;;14.82;100.00
44675;BME280;30388;52.038;-1.478;2023-04-29T00:23:37;66239.34;;;14.43;100.00
44675;BME280;30388;52.038;-1.478;2023-04-29T00:26:04;66217.30;;;14.38;100.00
44675;BME280;30388;52.038;-1.478;2023-04-29T00:28:32;66227.26;;;14.28;100.00
44675;BME280;30388;52.038;-1.478;2023-04-29T00:30:59;66203.78;;;14.21;100.00
44675;BME280;30388;52.038;-1.478;2023-04-29T00:33:26;66258.27;;;14.68;100.00
44675;BME280;30388;52.038;-1.478;2023-04-29T00:35:53;66229.77;;;14.32;100.00
44675;BME280;30388;52.038;-1.478;2023-04-29T00:38:20;66210.36;;;14.07;100.00
44675;BME280;30388;52.038;-1.478;2023-04-29T00:40:47;66220.13;;;14.41;100.00
44675;BME280;30388;52.038;-1.478;2023-04-29T00:43:14;66248.50;;;14.29;100.00
44675;BME280;30388;52.038;-1.478;2023-04-29T00:45:41;66274.63;;;14.88;100.00
44675;BME280;30388;52.038;-1.478;2023-04-29T00:48:08;66325.52;;;15.03;100.00
44675;BME280;30388;52.038;-1.478;2023-04-29T00:50:35;66295.94;;;15.14;100.00
44675;BME280;30388;52.038;-1.478;2023-04-29T00:53:03;66226.97;;;14.02;100.00
44675;BME280;30388;52.038;-1.478;2023-04-29T00:55:32;66174.69;;;13.62;100.00
44675;BME280;30388;52.038;-1.478;2023-04-29T00:58:00;66180.39;;;13.69;100.00
44675;BME280;30388;52.038;-1.478;2023-04-29T01:00:27;66180.85;;;13.92;100.00
44675;BME280;30388;52.038;-1.478;2023-04-29T01:02:54;66184.06;;;13.96;100.00
44675;BME280;30388;52.038;-1.478;2023-04-29T01:05:23;66230.32;;;14.32;100.00
44675;BME280;30388;52.038;-1.478;2023-04-29T01:07:58;66215.79;;;13.87;100.00
44675;BME280;30388;52.038;-1.478;2023-04-29T01:10:34;66215.08;;;13.86;100.00
44675;BME280;30388;52.038;-1.478;2023-04-29T01:13:08;66242.00;;;14.20;100.00
44675;BME280;30388;52.038;-1.478;2023-04-29T01:15:45;66246.62;;;14.04;100.00
44675;BME280;30388;52.038;-1.478;2023-04-29T01:18:19;66246.00;;;14.25;100.00
44675;BME280;30388;52.038;-1.478;2023-04-29T01:20:46;66259.61;;;14.20;100.00
44675;BME280;30388;52.038;-1.478;2023-04-29T01:23:14;66254.27;;;14.14;100.00
44675;BME280;30388;52.038;-1.478;2023-04-29T01:25:41;66297.96;;;14.69;100.00
44675;BME280;30388;52.038;-1.478;2023-04-29T01:28:15;66304.54;;;14.77;100.00
44675;BME280;30388;52.038;-1.478;2023-04-29T01:30:51;66313.80;;;15.11;100.00
44675;BME280;30388;52.038;-1.478;2023-04-29T01:33:31;66301.78;;;14.73;100.00
44675;BME280;30388;52.038;-1.478;2023-04-29T01:36:11;66293.44;;;14.85;100.00
44675;BME280;30388;52.038;-1.478;2023-04-29T01:38:46;66297.87;;;14.68;100.00
44675;BME280;30388;52.038;-1.478;2023-04-29T01:41:17;66334.34;;;15.15;100.00
44675;BME280;30388;52.038;-1.478;2023-04-29T01:43:48;66283.32;;;14.72;100.00
44675;BME280;30388;52.038;-1.478;2023-04-29T01:46:16;66280.04;;;14.47;100.00
44675;BME280;30388;52.038;-1.478;2023-04-29T01:48:44;66270.76;;;14.34;100.00
44675;BME280;30388;52.038;-1.478;2023-04-29T01:51:11;66288.27;;;14.56;100.00
44675;BME280;30388;52.038;-1.478;2023-04-29T01:53:39;66276.89;;;14.91;100.00
44675;BME280;30388;52.038;-1.478;2023-04-29T01:56:07;66251.52;;;14.10;100.00
44675;BME280;30388;52.038;-1.478;2023-04-29T01:58:34;66260.12;;;14.69;100.00
44675;BME280;30388;52.038;-1.478;2023-04-29T02:01:01;66298.77;;;14.69;100.00
44675;BME280;30388;52.038;-1.478;2023-04-29T02:03:29;66333.47;;;15.13;100.00
44675;BME280;30388;52.038;-1.478;2023-04-29T02:06:01;66299.33;;;14.69;100.00
44675;BME280;30388;52.038;-1.478;2023-04-29T02:08:28;66255.36;;;14.14;100.00
44675;BME280;30388;52.038;-1.478;2023-04-29T02:10:55;66236.34;;;14.13;100.00
44675;BME280;30388;52.038;-1.478;2023-04-29T02:13:23;66267.88;;;14.31;100.00
44675;BME280;30388;52.038;-1.478;2023-04-29T02:15:50;66261.15;;;14.22;100.00
44675;BME280;30388;52.038;-1.478;2023-04-29T02:18:17;66214.10;;;13.85;100.00
44675;BME280;30388;52.038;-1.478;2023-04-29T02:20:44;66229.68;;;14.31;100.00
44675;BME280;30388;52.038;-1.478;2023-04-29T02:23:11;66266.60;;;14.51;100.00
44675;BME280;30388;52.038;-1.478;2023-04-29T02:25:38;66235.87;;;14.13;100.00
44675;BME280;30388;52.038;-1.478;2023-04-29T02:28:05;66213.63;;;14.11;100.00
44675;BME280;30388;52.038;-1.478;2023-04-29T02:30:32;66207.05;;;14.03;100.00
44675;BME280;30388;52.038;-1.478;2023-04-29T02:32:59;66197.99;;;13.92;100.00
44675;BME280;30388;52.038;-1.478;2023-04-29T02:35:27;66208.70;;;14.04;100.00
44675;BME280;30388;52.038;-1.478;2023-04-29T02:37:54;66189.69;;;13.54;100.00
44675;BME280;30388;52.038;-1.478;2023-04-29T02:40:22;66171.62;;;13.58;100.00
44675;BME280;30388;52.038;-1.478;2023-04-29T02:42:49;66121.85;;;13.17;100.00
44675;BME280;30388;52.038;-1.478;2023-04-29T02:45:16;66103.61;;;13.17;100.00
44675;BME280;30388;52.038;-1.478;2023-04-29T02:47:44;66115.77;;;12.88;100.00
44675;BME280;30388;52.038;-1.478;2023-04-29T02:50:11;66103.32;;;13.17;100.00
44675;BME280;30388;52.038;-1.478;2023-04-29T02:52:38;66070.74;;;12.53;100.00
44675;BME280;30388;52.038;-1.478;2023-04-29T02:55:05;66033.27;;;12.06;100.00
44675;BME280;30388;52.038;-1.478;2023-04-29T02:57:33;66010.57;;;12.00;100.00
44675;BME280;30388;52.038;-1.478;2023-04-29T03:00:00;66079.79;;;12.87;100.00
44675;BME280;30388;52.038;-1.478;2023-04-29T03:02:27;66040.38;;;12.38;100.00
44675;BME280;30388;52.038;-1.478;2023-04-29T03:04:54;66033.86;;;12.29;100.00
44675;BME280;30388;52.038;-1.478;2023-04-29T03:07:22;66075.21;;;12.81;100.00
44675;BME280;30388;52.038;-1.478;2023-04-29T03:09:51;66034.80;;;12.08;100.00
44675;BME280;30388;52.038;-1.478;2023-04-29T03:12:18;66045.48;;;12.44;100.00
44675;BME280;30388;52.038;-1.478;2023-04-29T03:14:45;66065.62;;;12.69;100.00
44675;BME280;30388;52.038;-1.478;2023-04-29T03:17:12;66049.65;;;12.49;100.00
44675;BME280;30388;52.038;-1.478;2023-04-29T03:19:39;66006.65;;;11.94;100.00
44675;BME280;30388;52.038;-1.478;2023-04-29T03:22:06;66088.16;;;12.97;100.00
44675;BME280;30388;52.038;-1.478;2023-04-29T03:24:33;66080.39;;;12.88;100.00
44675;BME280;30388;52.038;-1.478;2023-04-29T03:26:59;65997.96;;;12.10;100.00
44675;BME280;30388;52.038;-1.478;2023-04-29T03:29:27;65978.07;;;12.07;100.00
44675;BME280;30388;52.038;-1.478;2023-04-29T03:31:54;65933.95;;;11.52;100.00
44675;BME280;30388;52.038;-1.478;2023-04-29T03:34:23;65927.73;;;11.43;100.00
44675;BME280;30388;52.038;-1.478;2023-04-29T03:36:50;65903.87;;;11.35;100.00
44675;BME280;30388;52.038;-1.478;2023-04-29T03:39:17;65973.43;;;12.01;100.00
44675;BME280;30388;52.038;-1.478;2023-04-29T03:41:44;65909.03;;;11.20;100.00
44675;BME280;30388;52.038;-1.478;2023-04-29T03:44:12;65886.68;;;11.14;100.00
44675;BME280;30388;52.038;-1.478;2023-04-29T03:46:39;65926.32;;;11.42;100.00
44675;BME280;30388;52.038;-1.478;2023-04-29T03:49:06;65845.21;;;10.62;100.00
44675;BME280;30388;52.038;-1.478;2023-04-29T03:51:33;65880.65;;;10.84;100.00
44675;BME280;30388;52.038;-1.478;2023-04-29T03:54:01;65808.27;;;10.15;100.00
44675;BME280;30388;52.038;-1.478;2023-04-29T03:56:33;65884.91;;;11.12;100.00
44675;BME280;30388;52.038;-1.478;2023-04-29T03:59:00;65887.60;;;11.15;100.00
44675;BME280;30388;52.038;-1.478;2023-04-29T04:01:27;65873.55;;;10.97;100.00
44675;BME280;30388;52.038;-1.478;2023-04-29T04:03:54;65897.12;;;11.28;100.00
44675;BME280;30388;52.038;-1.478;2023-04-29T04:06:21;65866.76;;;10.89;100.00
44675;BME280;30388;52.038;-1.478;2023-04-29T04:08:50;65935.45;;;11.54;100.00
44675;BME280;30388;52.038;-1.478;2023-04-29T04:11:17;65956.87;;;11.81;100.00
44675;BME280;30388;52.038;-1.478;2023-04-29T04:13:44;65853.71;;;10.99;100.00
44675;BME280;30388;52.038;-1.478;2023-04-29T04:16:11;65870.14;;;10.93;100.00
44675;BME280;30388;52.038;-1.478;2023-04-29T04:18:38;65842.16;;;10.84;100.00
44675;BME280;30388;52.038;-1.478;2023-04-29T04:21:06;65820.93;;;10.56;100.00
44675;BME280;30388;52.038;-1.478;2023-04-29T04:23:34;65814.52;;;10.49;100.00
44675;BME280;30388;52.038;-1.478;2023-04-29T04:26:02;65847.75;;;10.92;100.00
44675;BME280;30388;52.038;-1.478;2023-04-29T04:28:29;65884.04;;;11.11;100.00
44675;BME280;30388;52.038;-1.478;2023-04-29T04:30:56;65903.73;;;11.36;100.00
44675;BME280;30388;52.038;-1.478;2023-04-29T04:33:23;65980.38;;;12.10;100.00
44675;BME280;30388;52.038;-1.478;2023-04-29T04:35:50;65978.92;;;12.08;100.00
44675;BME280;30388;52.038;-1.478;2023-04-29T04:38:18;65933.84;;;11.29;100.00
44675;BME280;30388;52.038;-1.478;2023-04-29T04:40:44;65914.55;;;11.27;100.00
44675;BME280;30388;52.038;-1.478;2023-04-29T04:43:12;65887.45;;;11.15;100.00
44675;BME280;30388;52.038;-1.478;2023-04-29T04:45:39;65884.10;;;11.10;100.00
44675;BME280;30388;52.038;-1.478;2023-04-29T04:48:07;65896.98;;;11.04;100.00
44675;BME280;30388;52.038;-1.478;2023-04-29T04:50:33;65870.95;;;10.72;100.00
44675;BME280;30388;52.038;-1.478;2023-04-29T04:53:00;65916.88;;;11.30;100.00
44675;BME280;30388;52.038;-1.478;2023-04-29T04:55:27;65971.31;;;11.99;100.00
44675;BME280;30388;52.038;-1.478;2023-04-29T04:57:54;66033.42;;;12.76;100.00
44675;BME280;30388;52.038;-1.478;2023-04-29T05:00:22;66052.42;;;12.52;100.00
44675;BME280;30388;52.038;-1.478;2023-04-29T05:02:49;66053.65;;;12.54;100.00
44675;BME280;30388;52.038;-1.478;2023-04-29T05:05:15;66072.24;;;12.77;100.00
44675;BME280;30388;52.038;-1.478;2023-04-29T05:07:42;66080.15;;;12.64;100.00
44675;BME280;30388;52.038;-1.478;2023-04-29T05:10:10;66062.08;;;12.64;100.00
44675;BME280;30388;52.038;-1.478;2023-04-29T05:12:37;66085.27;;;12.93;100.00
44675;BME280;30388;52.038;-1.478;2023-04-29T05:15:05;66075.69;;;12.82;100.00
44675;BME280;30388;52.038;-1.478;2023-04-29T05:17:32;66057.41;;;12.58;100.00
44675;BME280;30388;52.038;-1.478;2023-04-29T05:19:59;66090.56;;;12.78;100.00
44675;BME280;30388;52.038;-1.478;2023-04-29T05:22:26;66081.98;;;12.89;100.00
44675;BME280;30388;52.038;-1.478;2023-04-29T05:24:53;66128.62;;;13.26;100.00
44675;BME280;30388;52.038;-1.478;2023-04-29T05:27:20;66108.67;;;13.23;100.00
44675;BME280;30388;52.038;-1.478;2023-04-29T05:29:47;66067.45;;;12.71;100.00
44675;BME280;30388;52.038;-1.478;2023-04-29T05:32:14;66128.17;;;13.25;100.00
44675;BME280;30388;52.038;-1.478;2023-04-29T05:34:42;66167.41;;;13.53;100.00
44675;BME280;30388;52.038;-1.478;2023-04-29T05:37:09;66157.64;;;13.85;100.00
44675;BME280;30388;52.038;-1.478;2023-04-29T05:39:36;66158.10;;;13.63;100.00
44675;BME280;30388;52.038;-1.478;2023-04-29T05:42:03;66144.88;;;13.68;100.00
44675;BME280;30388;52.038;-1.478;2023-04-29T05:44:30;66167.54;;;13.53;100.00
44675;BME280;30388;52.038;-1.478;2023-04-29T05:46:59;66175.09;;;14.06;100.00
44675;BME280;30388;52.038;-1.478;2023-04-29T05:49:26;66138.78;;;13.61;100.00
44675;BME280;30388;52.038;-1.478;2023-04-29T05:51:53;66055.33;;;13.04;100.00
44675;BME280;30388;52.038;-1.478;2023-04-29T05:54:20;66054.64;;;13.04;100.00
44675;BME280;30388;52.038;-1.478;2023-04-29T05:56:48;66053.26;;;13.02;100.00
44675;BME280;30388;52.038;-1.478;2023-04-29T05:59:14;66094.77;;;13.06;100.00
44675;BME280;30388;52.038;-1.478;2023-04-29T06:01:42;66060.37;;;13.11;100.00
44675;BME280;30388;52.038;-1.478;2023-04-29T06:04:09;65975.05;;;12.03;100.00
44675;BME280;30388;52.038;-1.478;2023-04-29T06:06:36;66063.15;;;12.92;100.00
44675;BME280;30388;52.038;-1.478;2023-04-29T06:09:04;66064.99;;;12.68;100.00
44675;BME280;30388;52.038;-1.478;2023-04-29T06:11:31;65920.21;;;11.35;100.00
44675;BME280;30388;52.038;-1.478;2023-04-29T06:13:58;66019.20;;;12.59;100.00
44675;BME280;30388;52.038;-1.478;2023-04-29T06:16:25;65930.58;;;11.49;100.00
44675;BME280;30388;52.038;-1.478;2023-04-29T06:18:53;65968.08;;;11.95;100.00
44675;BME280;30388;52.038;-1.478;2023-04-29T06:21:20;66006.02;;;12.43;100.00
44675;BME280;30388;52.038;-1.478;2023-04-29T06:23:47;66037.48;;;12.33;100.00
44675;BME280;30388;52.038;-1.478;2023-04-29T06:26:14;66047.74;;;12.95;100.00
44675;BME280;30388;52.038;-1.478;2023-04-29T06:28:41;66022.02;;;12.63;100.00
44675;BME280;30388;52.038;-1.478;2023-04-29T06:31:08;65897.39;;;11.06;100.00
44675;BME280;30388;52.038;-1.478;2023-04-29T06:33:35;66044.17;;;12.90;100.00
44675;BME280;30388;52.038;-1.478;2023-04-29T06:36:03;66043.83;;;12.89;100.00
44675;BME280;30388;52.038;-1.478;2023-04-29T06:38:30;66091.01;;;13.50;100.00
44675;BME280;30388;52.038;-1.478;2023-04-29T06:40:57;66095.39;;;13.06;100.00
44675;BME280;30388;52.038;-1.478;2023-04-29T06:43:24;66105.85;;;13.68;100.00
44675;BME280;30388;52.038;-1.478;2023-04-29T06:45:51;66097.17;;;13.09;100.00
44675;BME280;30388;52.038;-1.478;2023-04-29T06:48:19;66054.21;;;12.81;100.00
44675;BME280;30388;52.038;-1.478;2023-04-29T06:50:49;66064.11;;;12.94;100.00
44675;BME280;30388;52.038;-1.478;2023-04-29T06:53:15;66154.44;;;13.81;100.00
44675;BME280;30388;52.038;-1.478;2023-04-29T06:55:42;66164.35;;;13.93;100.00
44675;BME280;30388;52.038;-1.478;2023-04-29T06:58:09;66185.28;;;14.20;100.00
44675;BME280;30388;52.038;-1.478;2023-04-29T07:00:36;66210.76;;;14.51;100.00
44675;BME280;30388;52.038;-1.478;2023-04-29T07:03:03;66249.25;;;14.55;100.00
44675;BME280;30388;52.038;-1.478;2023-04-29T07:05:31;66235.46;;;14.61;100.00
44675;BME280;30388;52.038;-1.478;2023-04-29T07:08:03;66252.09;;;14.81;100.00
44675;BME280;30388;52.038;-1.478;2023-04-29T07:10:31;66177.74;;;13.88;100.00
44675;BME280;30388;52.038;-1.478;2023-04-29T07:12:59;66204.34;;;14.44;100.00
44675;BME280;30388;52.038;-1.478;2023-04-29T07:15:26;66127.18;;;13.46;100.00
44675;BME280;30388;52.038;-1.478;2023-04-29T07:17:53;66163.56;;;13.92;100.00
44675;BME280;30388;52.038;-1.478;2023-04-29T07:20:20;66106.54;;;13.20;100.00
44675;BME280;30388;52.038;-1.478;2023-04-29T07:22:48;66217.57;;;14.60;100.00
44675;BME280;30388;52.038;-1.478;2023-04-29T07:25:15;66259.22;;;14.68;100.00
44675;BME280;30388;52.038;-1.478;2023-04-29T07:27:42;66265.15;;;14.98;100.00
44675;BME280;30388;52.038;-1.478;2023-04-29T07:30:09;66240.67;;;14.89;100.00
44675;BME280;30388;52.038;-1.478;2023-04-29T07:32:37;66289.79;;;15.06;100.00
44675;BME280;30388;52.038;-1.478;2023-04-29T07:35:05;66277.99;;;14.92;100.00
44675;BME280;30388;52.038;-1.478;2023-04-29T07:37:32;66207.16;;;14.24;100.00
44675;BME280;30388;52.038;-1.478;2023-04-29T07:40:00;66255.47;;;14.64;100.00
44675;BME280;30388;52.038;-1.478;2023-04-29T07:42:28;66104.88;;;13.18;100.00
44675;BME280;30388;52.038;-1.478;2023-04-29T07:44:55;66175.33;;;14.07;100.00
44675;BME280;30388;52.038;-1.478;2023-04-29T07:47:22;66204.81;;;14.22;100.00
44675;BME280;30388;52.038;-1.478;2023-04-29T07:49:49;66181.00;;;14.15;100.00
44675;BME280;30388;52.038;-1.478;2023-04-29T07:52:16;66231.35;;;14.56;100.00
44675;BME280;30388;52.038;-1.478;2023-04-29T07:54:44;66241.21;;;14.45;100.00
44675;BME280;30388;52.038;-1.478;2023-04-29T07:57:10;66242.57;;;14.47;100.00
44675;BME280;30388;52.038;-1.478;2023-04-29T07:59:37;66212.48;;;14.09;100.00
44675;BME280;30388;52.038;-1.478;2023-04-29T08:02:04;66209.68;;;14.06;100.00
44675;BME280;30388;52.038;-1.478;2023-04-29T08:04:32;66330.70;;;15.09;100.00
44675;BME280;30388;52.038;-1.478;2023-04-29T08:06:59;66232.31;;;14.07;100.00
44675;BME280;30388;52.038;-1.478;2023-04-29T08:09:26;66338.04;;;15.67;100.00
44675;BME280;30388;52.038;-1.478;2023-04-29T08:11:53;66370.44;;;15.59;100.00
44675;BME280;30388;52.038;-1.478;2023-04-29T08:14:20;66354.01;;;15.38;100.00
44675;BME280;30388;52.038;-1.478;2023-04-29T08:16:47;66365.66;;;15.26;100.00
44675;BME280;30388;52.038;-1.478;2023-04-29T08:19:14;66336.10;;;15.16;100.00
44675;BME280;30388;52.038;-1.478;2023-04-29T08:21:41;66228.24;;;14.02;100.00
44675;BME280;30388;52.038;-1.478;2023-04-29T08:24:08;66164.24;;;13.71;100.00
44675;BME280;30388;52.038;-1.478;2023-04-29T08:26:35;66316.85;;;15.40;100.00
44675;BME280;30388;52.038;-1.478;2023-04-29T08:29:02;66325.09;;;15.51;100.00
44675;BME280;30388;52.038;-1.478;2023-04-29T08:31:29;66401.71;;;15.98;100.00
44675;BME280;30388;52.038;-1.478;2023-04-29T08:33:56;66436.19;;;16.42;100.00
44675;BME280;30388;52.038;-1.478;2023-04-29T08:36:23;66431.12;;;16.36;100.00
44675;BME280;30388;52.038;-1.478;2023-04-29T08:38:50;66427.51;;;16.04;100.00
44675;BME280;30388;52.038;-1.478;2023-04-29T08:41:18;66441.42;;;16.21;100.00
44675;BME280;30388;52.038;-1.478;2023-04-29T08:43:45;66471.72;;;16.86;100.00
44675;BME280;30388;52.038;-1.478;2023-04-29T08:46:13;66434.36;;;16.40;100.00
44675;BME280;30388;52.038;-1.478;2023-04-29T08:48:42;66331.86;;;15.11;100.00
44675;BME280;30388;52.038;-1.478;2023-04-29T08:51:11;66326.85;;;15.27;100.00
44675;BME280;30388;52.038;-1.478;2023-04-29T08:53:38;66371.54;;;15.61;100.00
44675;BME280;30388;52.038;-1.478;2023-04-29T08:56:08;66324.30;;;15.49;100.00
44675;BME280;30388;52.038;-1.478;2023-04-29T08:58:40;66300.47;;;14.93;100.00
44675;BME280;30388;52.038;-1.478;2023-04-29T09:01:08;66357.27;;;15.42;100.00
44675;BME280;30388;52.038;-1.478;2023-04-29T09:03:42;66339.53;;;15.20;100.00
44675;BME280;30388;52.038;-1.478;2023-04-29T09:06:10;66427.82;;;16.31;100.00
44675;BME280;30388;52.038;-1.478;2023-04-29T09:08:38;66496.00;;;16.90;100.00
44675;BME280;30388;52.038;-1.478;2023-04-29T09:11:08;66528.03;;;17.08;100.00
44675;BME280;30388;52.038;-1.478;2023-04-29T09:13:35;66546.62;;;17.31;100.00
44675;BME280;30388;52.038;-1.478;2023-04-29T09:16:03;66563.33;;;17.53;100.00
44675;BME280;30388;52.038;-1.478;2023-04-29T09:18:47;66472.36;;;16.60;100.00
44675;BME280;30388;52.038;-1.478;2023-04-29T09:21:16;66405.08;;;16.02;100.00
44675;BME280;30388;52.038;-1.478;2023-04-29T09:23:44;66322.79;;;15.70;100.00
44675;BME280;30388;52.038;-1.478;2023-04-29T09:26:11;66379.95;;;16.19;100.00
44675;BME280;30388;52.038;-1.478;2023-04-29T09:28:39;66217.11;;;14.60;100.00
44675;BME280;30388;52.038;-1.478;2023-04-29T09:31:06;66271.80;;;15.28;100.00
44675;BME280;30388;52.038;-1.478;2023-04-29T09:33:49;66425.18;;;16.77;100.00
44675;BME280;30388;52.038;-1.478;2023-04-29T09:36:35;66546.12;;;17.53;100.00
44675;BME280;30388;52.038;-1.478;2023-04-29T09:39:02;66588.06;;;17.61;100.00
44675;BME280;30388;52.038;-1.478;2023-04-29T09:41:30;66687.90;;;18.60;100.00
44675;BME280;30388;52.038;-1.478;2023-04-29T09:44:02;66741.44;;;19.27;100.00
44675;BME280;30388;52.038;-1.478;2023-04-29T09:46:31;66641.42;;;18.02;100.00
44675;BME280;30388;52.038;-1.478;2023-04-29T09:48:59;66719.85;;;18.78;100.00
44675;BME280;30388;52.038;-1.478;2023-04-29T09:51:27;66721.60;;;19.02;100.00
44675;BME280;30388;52.038;-1.478;2023-04-29T09:53:54;66600.73;;;17.99;100.00
44675;BME280;30388;52.038;-1.478;2023-04-29T09:56:21;66474.71;;;16.42;100.00
44675;BME280;30388;52.038;-1.478;2023-04-29T09:58:48;66599.02;;;17.49;100.00
44675;BME280;30388;52.038;-1.478;2023-04-29T10:01:16;66510.14;;;16.86;100.00
44675;BME280;30388;52.038;-1.478;2023-04-29T10:03:45;66670.85;;;18.39;100.00
44675;BME280;30388;52.038;-1.478;2023-04-29T10:06:16;66603.32;;;17.81;100.00
44675;BME280;30388;52.038;-1.478;2023-04-29T10:08:43;66381.83;;;15.96;100.00
44675;BME280;30388;52.038;-1.478;2023-04-29T10:11:11;66293.61;;;15.34;100.00
44675;BME280;30388;52.038;-1.478;2023-04-29T10:13:41;66241.99;;;14.91;100.00
44675;BME280;30388;52.038;-1.478;2023-04-29T10:16:14;66239.46;;;14.88;100.00
44675;BME280;30388;52.038;-1.478;2023-04-29T10:18:51;66188.06;;;14.23;100.00
44675;BME280;30388;52.038;-1.478;2023-04-29T10:21:20;66233.88;;;15.07;100.00
44675;BME280;30388;52.038;-1.478;2023-04-29T10:23:52;66351.71;;;16.07;100.00
44675;BME280;30388;52.038;-1.478;2023-04-29T10:26:20;66440.65;;;16.48;100.00
44675;BME280;30388;52.038;-1.478;2023-04-29T10:28:49;66416.11;;;16.16;100.00
44675;BME280;30388;52.038;-1.478;2023-04-29T10:31:17;66431.98;;;16.85;100.00
44675;BME280;30388;52.038;-1.478;2023-04-29T10:33:46;66437.66;;;16.44;100.00
44675;BME280;30388;52.038;-1.478;2023-04-29T10:36:14;66496.37;;;16.90;100.00
44675;BME280;30388;52.038;-1.478;2023-04-29T10:38:45;66565.43;;;17.55;100.00
44675;BME280;30388;52.038;-1.478;2023-04-29T10:41:19;66526.23;;;17.06;100.00
44675;BME280;30388;52.038;-1.478;2023-04-29T10:43:47;66708.23;;;18.85;100.00
44675;BME280;30388;52.038;-1.478;2023-04-29T10:46:19;66711.80;;;18.90;100.00
44675;BME280;30388;52.038;-1.478;2023-04-29T10:48:47;66584.58;;;18.01;100.00
44675;BME280;30388;52.038;-1.478;2023-04-29T10:51:29;66616.12;;;18.18;100.00
44675;BME280;30388;52.038;-1.478;2023-04-29T10:54:01;66733.32;;;19.17;100.00
44675;BME280;30388;52.038;-1.478;2023-04-29T10:56:39;66741.06;;;19.26;100.00
44675;BME280;30388;52.038;-1.478;2023-04-29T10:59:10;66637.99;;;18.23;100.00
44675;BME280;30388;52.038;-1.478;2023-04-29T11:01:43;66584.11;;;17.56;100.00
44675;BME280;30388;52.038;-1.478;2023-04-29T11:04:11;66482.29;;;17.00;100.00
44675;BME280;30388;52.038;-1.478;2023-04-29T11:06:41;66617.89;;;18.21;100.00
44675;BME280;30388;52.038;-1.478;2023-04-29T11:09:12;66726.72;;;19.08;100.00
44675;BME280;30388;52.038;-1.478;2023-04-29T11:11:43;66834.37;;;20.43;100.00
44675;BME280;30388;52.038;-1.478;2023-04-29T11:14:12;66795.14;;;19.94;100.00
44675;BME280;30388;52.038;-1.478;2023-04-29T11:16:50;66734.94;;;19.45;100.00
44675;BME280;30388;52.038;-1.478;2023-04-29T11:19:18;66571.91;;;18.12;100.00
44675;BME280;30388;52.038;-1.478;2023-04-29T11:21:46;66572.46;;;18.12;100.00
44675;BME280;30388;52.038;-1.478;2023-04-29T11:24:13;66594.52;;;17.91;100.00
44675;BME280;30388;52.038;-1.478;2023-04-29T11:26:40;66616.70;;;17.97;100.00
44675;BME280;30388;52.038;-1.478;2023-04-29T11:29:08;66791.17;;;19.67;100.00
44675;BME280;30388;52.038;-1.478;2023-04-29T11:31:35;66825.62;;;20.10;100.00
44675;BME280;30388;52.038;-1.478;2023-04-29T11:34:04;66799.99;;;19.78;100.00
44675;BME280;30388;52.038;-1.478;2023-04-29T11:36:32;66776.45;;;19.49;100.00
44675;BME280;30388;52.038;-1.478;2023-04-29T11:39:00;66760.70;;;19.51;100.00
44675;BME280;30388;52.038;-1.478;2023-04-29T11:41:28;66669.80;;;18.37;100.00
44675;BME280;30388;52.038;-1.478;2023-04-29T11:43:56;66777.09;;;19.71;100.00
44675;BME280;30388;52.038;-1.478;2023-04-29T11:46:24;66882.64;;;20.54;100.00
44675;BME280;30388;52.038;-1.478;2023-04-29T11:48:52;66874.04;;;20.44;100.00
44675;BME280;30388;52.038;-1.478;2023-04-29T11:51:19;66950.20;;;20.69;100.00
44675;BME280;30388;52.038;-1.478;2023-04-29T11:53:47;66996.21;;;21.52;100.00
44675;BME280;30388;52.038;-1.478;2023-04-29T11:56:14;66933.21;;;20.74;100.00
44675;BME280;30388;52.038;-1.478;2023-04-29T11:58:42;67175.45;;;23.28;100.00
44675;BME280;30388;52.038;-1.478;2023-04-29T12:01:09;67087.18;;;22.17;100.00
44675;BME280;30388;52.038;-1.478;2023-04-29T12:03:37;67131.67;;;22.96;100.00
44675;BME280;30388;52.038;-1.478;2023-04-29T12:06:04;67117.93;;;22.56;100.00
44675;BME280;30388;52.038;-1.478;2023-04-29T12:08:31;66909.50;;;20.66;100.00
44675;BME280;30388;52.038;-1.478;2023-04-29T12:10:59;66925.53;;;20.64;100.00
44675;BME280;30388;52.038;-1.478;2023-04-29T12:13:28;66699.07;;;18.74;100.00
44675;BME280;30388;52.038;-1.478;2023-04-29T12:15:57;66799.82;;;19.99;100.00
44675;BME280;30388;52.038;-1.478;2023-04-29T12:18:25;66920.58;;;20.80;100.00
44675;BME280;30388;52.038;-1.478;2023-04-29T12:20:52;66855.15;;;20.21;100.00
44675;BME280;30388;52.038;-1.478;2023-04-29T12:23:23;66766.26;;;19.36;100.00
44675;BME280;30388;52.038;-1.478;2023-04-29T12:25:51;66966.24;;;21.38;100.00
44675;BME280;30388;52.038;-1.478;2023-04-29T12:28:19;67141.10;;;23.33;100.00
44675;BME280;30388;52.038;-1.478;2023-04-29T12:30:46;67335.38;;;24.79;100.00
44675;BME280;30388;52.038;-1.478;2023-04-29T12:33:18;67389.49;;;25.24;100.00
44675;BME280;30388;52.038;-1.478;2023-04-29T12:35:45;67258.44;;;24.31;100.00
44675;BME280;30388;52.038;-1.478;2023-04-29T12:38:15;67273.03;;;24.27;100.00
44675;BME280;30388;52.038;-1.478;2023-04-29T12:40:43;67216.75;;;23.30;100.00
44675;BME280;30388;52.038;-1.478;2023-04-29T12:43:11;67184.97;;;22.91;100.00
44675;BME280;30388;52.038;-1.478;2023-04-29T12:45:38;67063.37;;;21.87;100.00